Time;durP1;ratioP1;P1;durP2;ratioP2;P2;SDS_P1;SDS_P2;PMS_P1;PMS_P2;Temp;Humidity;BMP_temperature;BMP_pressure;BME280_temperature;BME280_humidity;BME280_pressure;Samples;Min_cycle;Max_cycle;Signal;HPM_P1;HPM_P2
2023/07/17 00:00:36;;;;;;;1.43;1.30;;;;;;;16.34;80.29;101469.78;5054159;28;20435;-86
2023/07/17 00:03:04;;;;;;;1.10;1.10;;;;;;;16.27;80.91;101463.84;5056058;28;20122;-86
2023/07/17 00:05:29;;;;;;;1.30;1.20;;;;;;;16.21;80.61;101467.50;5056034;28;20037;-86
2023/07/17 00:08:00;;;;;;;0.90;0.90;;;;;;;16.18;83.57;101465.00;5056164;28;20439;-86
2023/07/17 00:10:28;;;;;;;1.52;1.42;;;;;;;16.05;81.15;101455.78;5056828;28;20108;-87
2023/07/17 00:12:54;;;;;;;1.38;1.27;;;;;;;16.10;82.51;101469.59;5055725;28;20135;-87
2023/07/17 00:15:19;;;;;;;1.47;1.37;;;;;;;16.05;83.50;101458.41;5055675;28;20092;-87
2023/07/17 00:17:44;;;;;;;1.30;0.97;;;;;;;16.00;83.06;101461.16;5058820;28;20028;-87
2023/07/17 00:20:11;;;;;;;1.13;1.10;;;;;;;15.97;81.01;101455.16;5054540;28;20048;-86
2023/07/17 00:22:37;;;;;;;1.23;1.15;;;;;;;15.96;80.75;101464.75;5055684;28;20036;-87
2023/07/17 00:25:06;;;;;;;1.40;0.98;;;;;;;15.98;81.18;101469.97;5055964;28;20029;-87
2023/07/17 00:27:31;;;;;;;1.27;1.17;;;;;;;15.93;80.93;101464.81;5055023;28;20029;-86
2023/07/17 00:29:57;;;;;;;1.93;1.20;;;;;;;15.92;81.41;101464.88;5055580;28;20044;-87
2023/07/17 00:32:25;;;;;;;1.40;1.30;;;;;;;15.89;81.50;101463.22;5055374;28;20033;-86
2023/07/17 00:34:50;;;;;;;1.27;1.17;;;;;;;15.91;83.46;101464.03;5054981;28;20025;-87
2023/07/17 00:37:16;;;;;;;1.00;1.00;;;;;;;15.85;83.61;101461.56;5055094;28;20029;-86
2023/07/17 00:39:41;;;;;;;1.63;1.13;;;;;;;15.84;84.36;101470.28;5055069;28;20032;-86
2023/07/17 00:42:07;;;;;;;1.37;1.27;;;;;;;15.82;83.13;101467.72;5054653;28;20017;-86
2023/07/17 00:44:35;;;;;;;1.10;0.80;;;;;;;15.80;86.02;101479.13;5055280;28;20470;-86
2023/07/17 00:47:01;;;;;;;1.38;1.27;;;;;;;15.74;82.50;101473.16;5054817;28;20029;-86
2023/07/17 00:49:29;;;;;;;3.88;1.83;;;;;;;15.70;84.73;101479.38;5054122;28;20021;-86
2023/07/17 00:51:56;;;;;;;3.10;2.10;;;;;;;15.67;84.96;101482.06;5054905;28;20057;-86
2023/07/17 00:54:21;;;;;;;2.10;1.90;;;;;;;15.64;84.31;101483.94;5054490;28;20032;-86
2023/07/17 00:56:49;;;;;;;1.90;1.80;;;;;;;15.61;85.91;101479.59;5054676;28;20021;-86
2023/07/17 00:59:16;;;;;;;2.65;1.80;;;;;;;15.56;84.63;101484.13;5054513;28;20045;-86
2023/07/17 01:01:42;;;;;;;2.13;1.83;;;;;;;15.54;85.16;101496.38;5054169;28;20056;-86
2023/07/17 01:04:08;;;;;;;2.38;1.85;;;;;;;15.49;86.67;101496.50;5054747;28;20477;-86
2023/07/17 01:06:38;;;;;;;2.10;1.77;;;;;;;15.40;85.72;101486.28;5055027;28;20047;-86
2023/07/17 01:09:24;;;;;;;2.50;1.90;;;;;;;15.31;87.08;101470.81;5054136;28;20079;-86
2023/07/17 01:11:49;;;;;;;2.05;1.80;;;;;;;15.32;87.57;101493.44;5053727;28;20025;-85
2023/07/17 01:14:16;;;;;;;3.13;2.13;;;;;;;15.30;85.71;101503.94;5054311;28;20054;-86
2023/07/17 01:16:43;;;;;;;2.05;1.80;;;;;;;15.27;88.67;101490.94;5058723;28;20029;-85
2023/07/17 01:19:08;;;;;;;;;;;;;;;15.24;86.32;101493.63;5055066;28;20512;-86
2023/07/17 01:21:35;;;;;;;1.77;1.67;;;;;;;15.22;85.60;101492.81;5054914;28;20000;-87
2023/07/17 01:24:00;;;;;;;1.80;1.70;;;;;;;15.23;87.66;101499.75;5053805;28;20029;-87
2023/07/17 01:26:26;;;;;;;3.73;2.00;;;;;;;15.19;88.29;101498.09;5054486;28;20537;-86
2023/07/17 01:28:51;;;;;;;2.20;1.80;;;;;;;15.19;85.76;101500.72;5054427;28;20052;-86
2023/07/17 01:31:17;;;;;;;2.00;1.60;;;;;;;15.13;87.36;101501.72;5053319;28;20436;-86
2023/07/17 01:33:42;;;;;;;1.87;1.70;;;;;;;15.11;89.03;101509.63;5054561;28;20104;-86
2023/07/17 01:36:29;;;;;;;1.97;1.77;;;;;;;15.07;87.26;101514.97;5054718;28;20048;-86
2023/07/17 01:38:54;;;;;;;2.10;1.77;;;;;;;15.04;86.29;101509.78;5053663;28;20025;-87
2023/07/17 01:41:21;;;;;;;2.43;1.70;;;;;;;15.07;87.12;101517.56;5054359;28;20452;-87
2023/07/17 01:43:46;;;;;;;;;;;;;;;15.04;86.15;101510.63;5054270;28;20032;-86
2023/07/17 01:46:11;;;;;;;1.37;1.13;;;;;;;15.03;86.65;101503.69;5054321;28;19932;-86
2023/07/17 01:48:37;;;;;;;2.10;1.77;;;;;;;15.02;88.00;101506.34;5055804;28;20032;-87
2023/07/17 01:51:02;;;;;;;1.77;1.67;;;;;;;15.00;86.88;101505.53;5053957;28;20051;-87
2023/07/17 01:53:27;;;;;;;1.63;1.50;;;;;;;14.98;85.87;101502.94;5054223;28;20491;-87
2023/07/17 01:55:54;;;;;;;1.50;1.40;;;;;;;14.96;85.53;101500.38;5054064;28;20480;-87
2023/07/17 01:58:19;;;;;;;;;;;;;;;14.96;86.91;101495.16;5053387;28;20428;-86
2023/07/17 02:00:45;;;;;;;1.03;1.03;;;;;;;14.91;85.31;101498.78;5054353;28;20015;-87
2023/07/17 02:03:10;;;;;;;1.30;1.20;;;;;;;14.93;85.32;101503.06;5054006;28;20082;-87
2023/07/17 02:05:37;;;;;;;1.17;1.10;;;;;;;14.91;85.57;101506.63;5053556;28;20487;-87
2023/07/17 02:08:02;;;;;;;;;;;;;;;14.89;85.42;101505.78;5054649;28;20100;-87
2023/07/17 02:10:34;;;;;;;1.30;1.20;;;;;;;14.87;84.75;101492.72;5053648;28;19963;-87
2023/07/17 02:12:59;;;;;;;1.20;1.10;;;;;;;14.85;86.74;101502.38;5053221;28;20349;-87
2023/07/17 02:15:24;;;;;;;1.30;1.20;;;;;;;14.80;85.56;101501.63;5053878;28;20029;-86
2023/07/17 02:17:50;;;;;;;1.40;1.20;;;;;;;14.78;87.86;101500.78;5053997;28;20033;-86
2023/07/17 02:20:15;;;;;;;1.37;1.20;;;;;;;14.72;87.35;101504.41;5052591;28;20044;-86
2023/07/17 02:22:41;;;;;;;1.83;1.20;;;;;;;14.70;88.21;101507.94;5053730;28;20101;-87
2023/07/17 02:25:07;;;;;;;1.10;1.00;;;;;;;14.67;86.47;101507.09;5053277;28;20028;-87
2023/07/17 02:27:33;;;;;;;1.50;1.27;;;;;;;14.66;88.08;101520.19;5052663;28;20217;-87
2023/07/17 02:30:01;;;;;;;3.15;1.80;;;;;;;14.61;88.85;101517.69;5053367;28;20152;-86
2023/07/17 02:32:28;;;;;;;1.63;1.42;;;;;;;14.58;87.34;101514.28;5053717;28;20035;-87
2023/07/17 02:34:53;;;;;;;1.70;1.60;;;;;;;14.56;87.82;101509.06;5052668;28;20188;-87
2023/07/17 02:37:19;;;;;;;1.20;1.10;;;;;;;14.52;87.67;101515.25;5053209;28;20056;-87
2023/07/17 02:39:44;;;;;;;1.90;1.43;;;;;;;14.52;88.75;101515.25;5053061;28;20052;-87
2023/07/17 02:42:09;;;;;;;1.83;1.50;;;;;;;14.46;89.41;101518.88;5052155;28;20370;-87
2023/07/17 02:44:36;;;;;;;3.60;1.80;;;;;;;14.41;88.71;101514.63;5052920;28;20056;-87
2023/07/17 02:47:02;;;;;;;2.67;1.90;;;;;;;14.41;89.36;101515.47;5052044;28;20112;-86
2023/07/17 02:49:27;;;;;;;1.60;1.50;;;;;;;14.35;88.02;101516.47;5053186;28;20537;-86
2023/07/17 02:51:53;;;;;;;2.10;1.57;;;;;;;14.37;88.14;101519.03;5053427;28;20052;-87
2023/07/17 02:54:21;;;;;;;2.37;1.80;;;;;;;14.34;89.29;101516.50;5052224;28;20475;-87
2023/07/17 02:56:49;;;;;;;3.05;1.58;;;;;;;14.29;89.55;101510.50;5053198;28;20491;-87
2023/07/17 02:59:14;;;;;;;1.60;1.50;;;;;;;14.31;88.39;101529.59;5056617;28;20455;-87
2023/07/17 03:01:40;;;;;;;1.60;1.50;;;;;;;14.27;89.34;101533.16;5052498;28;20113;-87
2023/07/17 03:04:06;;;;;;;1.63;1.50;;;;;;;14.18;87.80;101524.63;5052858;28;20025;-87
2023/07/17 03:06:31;;;;;;;1.20;1.10;;;;;;;14.19;88.79;101528.09;5053377;28;20377;-87
2023/07/17 03:08:56;;;;;;;1.30;1.20;;;;;;;14.20;89.49;101545.47;5052147;28;20032;-87
2023/07/17 03:11:22;;;;;;;1.30;1.20;;;;;;;14.19;88.82;101543.75;5052741;28;20052;-87
2023/07/17 03:13:47;;;;;;;1.03;1.03;;;;;;;14.17;88.66;101548.16;5053109;28;20092;-87
2023/07/17 03:16:12;;;;;;;1.20;1.20;;;;;;;14.17;87.48;101550.78;5052217;28;20476;-87
2023/07/17 03:18:38;;;;;;;2.13;1.30;;;;;;;14.13;89.38;101559.53;5053016;28;20022;-87
2023/07/17 03:21:03;;;;;;;1.93;1.67;;;;;;;14.05;89.52;101550.13;5052872;28;20117;-87
2023/07/17 03:23:28;;;;;;;2.33;1.50;;;;;;;14.04;89.06;101542.28;5052248;28;20021;-87
2023/07/17 03:25:56;;;;;;;2.73;1.70;;;;;;;14.04;88.45;101545.78;5053484;28;20021;-88
2023/07/17 03:28:21;;;;;;;1.65;1.50;;;;;;;14.01;88.30;101540.59;5053117;28;20017;-88
2023/07/17 03:30:47;;;;;;;1.50;1.40;;;;;;;14.01;88.54;101547.59;5052314;28;20040;-88
2023/07/17 03:33:12;;;;;;;1.23;1.13;;;;;;;14.00;88.38;101551.09;5052869;28;20036;-88
2023/07/17 03:35:37;;;;;;;1.57;1.20;;;;;;;13.98;89.47;101543.25;5055364;28;20021;-88
2023/07/17 03:38:03;;;;;;;1.30;1.20;;;;;;;13.94;89.04;101549.44;5055943;28;20028;-88
2023/07/17 03:40:29;;;;;;;2.05;1.48;;;;;;;13.93;89.49;101558.16;5057103;28;20025;-88
2023/07/17 03:42:55;;;;;;;1.70;1.33;;;;;;;13.92;90.10;101552.94;5057421;28;20112;-88
2023/07/17 03:45:20;;;;;;;1.60;1.40;;;;;;;13.88;89.97;101552.16;5056727;28;20017;-87
2023/07/17 03:47:46;;;;;;;1.80;1.50;;;;;;;13.88;89.39;101549.53;5057057;28;20476;-88
2023/07/17 03:50:11;;;;;;;1.40;1.30;;;;;;;13.84;88.41;101545.28;5056706;28;20025;-88
2023/07/17 03:52:37;;;;;;;1.43;1.30;;;;;;;13.89;88.31;101561.69;5056377;28;20412;-88
2023/07/17 03:55:02;;;;;;;2.27;1.20;;;;;;;13.87;90.90;101553.91;5056897;28;20469;-88
2023/07/17 03:57:27;;;;;;;1.40;1.20;;;;;;;13.82;89.81;101560.09;5056281;28;20022;-88
2023/07/17 03:59:54;;;;;;;1.90;1.47;;;;;;;13.83;89.29;101560.06;5062695;28;20136;-88
2023/07/17 04:02:21;;;;;;;1.38;1.02;;;;;;;13.84;89.70;101563.53;5056665;28;20021;-88
2023/07/17 04:04:46;;;;;;;1.67;1.50;;;;;;;13.82;91.42;101563.56;5056779;28;20350;-88
2023/07/17 04:07:12;;;;;;;2.30;1.53;;;;;;;13.80;90.74;101564.47;5059294;28;20033;-87
2023/07/17 04:09:40;;;;;;;3.53;1.80;;;;;;;13.78;92.85;101564.50;5056814;28;20017;-87
2023/07/17 04:12:06;;;;;;;3.00;1.90;;;;;;;13.73;91.27;101559.38;5055938;28;20085;-88
2023/07/17 04:14:32;;;;;;;2.33;1.80;;;;;;;13.79;91.04;101574.03;5055988;28;20481;-88
2023/07/17 04:16:57;;;;;;;1.88;1.50;;;;;;;13.79;90.70;101570.56;5056487;28;20235;-88
2023/07/17 04:19:23;;;;;;;2.93;1.83;;;;;;;13.75;90.95;101562.78;5055408;28;20025;-88
2023/07/17 04:21:48;;;;;;;2.17;1.70;;;;;;;13.78;90.97;101567.13;5056246;28;20466;-87
2023/07/17 04:24:13;;;;;;;2.03;1.63;;;;;;;13.82;92.19;101576.59;5056105;28;20029;-88
2023/07/17 04:26:39;;;;;;;1.90;1.60;;;;;;;13.83;91.65;101585.31;5055776;28;20432;-89
2023/07/17 04:29:06;;;;;;;4.97;2.07;;;;;;;13.82;92.06;101581.81;5056277;28;20032;-88
2023/07/17 04:31:32;;;;;;;2.85;2.00;;;;;;;13.84;92.07;101587.03;5056011;28;20458;-88
2023/07/17 04:33:57;;;;;;;2.63;2.00;;;;;;;13.85;91.78;101592.22;5055971;28;20147;-88
2023/07/17 04:36:23;;;;;;;2.23;1.77;;;;;;;13.88;92.48;101593.91;5055633;28;20036;-87
2023/07/17 04:38:48;;;;;;;2.13;1.80;;;;;;;13.87;91.56;101592.16;5056046;28;20098;-89
2023/07/17 04:41:14;;;;;;;2.33;1.90;;;;;;;13.89;90.35;101595.63;5055084;28;20016;-89
2023/07/17 04:43:39;;;;;;;2.67;2.00;;;;;;;13.92;91.72;101599.91;5055970;28;20461;-88
2023/07/17 04:46:05;;;;;;;3.37;2.00;;;;;;;13.94;90.82;101609.47;5055737;28;20373;-88
2023/07/17 04:48:30;;;;;;;4.80;2.40;;;;;;;13.98;92.66;101607.66;5054780;28;20025;-88
2023/07/17 04:50:55;;;;;;;3.47;2.30;;;;;;;14.01;92.06;101610.22;5055273;28;20029;-89
2023/07/17 04:53:21;;;;;;;3.43;1.90;;;;;;;14.03;90.94;101608.41;5055332;28;20163;-88
2023/07/17 04:55:48;;;;;;;2.33;1.80;;;;;;;14.07;91.41;101617.94;5054797;28;20044;-89
2023/07/17 04:58:13;;;;;;;1.73;1.63;;;;;;;14.12;90.60;101613.50;5054652;28;20032;-88
2023/07/17 05:00:39;;;;;;;3.93;2.00;;;;;;;14.13;91.29;101604.75;5060814;28;20017;-87
2023/07/17 05:03:05;;;;;;;1.73;1.63;;;;;;;14.13;90.45;101604.75;5056242;28;20029;-90
2023/07/17 05:05:31;;;;;;;4.17;2.00;;;;;;;14.22;91.77;101614.19;5056270;28;20021;-90
2023/07/17 05:07:56;;;;;;;2.22;2.03;;;;;;;14.24;91.09;101619.41;5055622;28;20058;-86
2023/07/17 05:10:22;;;;;;;2.03;1.80;;;;;;;14.28;91.58;101619.31;5055441;28;20021;-86
2023/07/17 05:12:47;;;;;;;2.33;1.90;;;;;;;14.24;92.03;101601.97;5054728;28;20075;-85
2023/07/17 05:15:12;;;;;;;3.43;2.03;;;;;;;14.36;91.16;101616.53;5055332;28;20033;-86
2023/07/17 05:17:38;;;;;;;2.20;1.90;;;;;;;14.31;89.93;101608.78;5054338;28;20025;-81
2023/07/17 05:22:47;;;;;;;4.55;2.40;;;;;;;14.41;90.48;101608.63;5053736;28;20036;-81
2023/07/17 05:25:13;;;;;;;5.40;2.33;;;;;;;14.54;91.31;101623.16;5054308;28;20021;-81
2023/07/17 05:27:38;;;;;;;2.77;2.20;;;;;;;14.48;90.52;101612.84;5054245;28;20497;-81
2023/07/17 05:30:16;;;;;;;6.70;3.10;;;;;;;14.57;90.83;101625.72;5053775;28;20469;-79
2023/07/17 05:32:41;;;;;;;5.05;2.78;;;;;;;14.64;90.75;101629.91;5054060;28;20052;-80
2023/07/17 05:35:07;;;;;;;7.03;2.90;;;;;;;14.62;90.95;101617.78;5055384;28;20384;-93
2023/07/17 05:37:33;;;;;;;4.63;2.60;;;;;;;14.73;90.17;101643.75;5055768;28;20484;-90
2023/07/17 05:39:58;;;;;;;8.23;3.40;;;;;;;14.65;90.17;101621.19;5054307;28;20024;-83
2023/07/17 05:42:31;;;;;;;11.00;3.53;;;;;;;14.70;90.73;101618.50;5053866;28;20251;-80
2023/07/17 05:44:56;;;;;;;8.15;3.38;;;;;;;14.81;90.81;101634.00;5053324;28;20492;-79
2023/07/17 05:47:22;;;;;;;5.23;2.90;;;;;;;14.85;91.04;101637.41;5053969;28;20039;-89
2023/07/17 05:49:47;;;;;;;8.00;3.50;;;;;;;14.89;90.31;101637.31;5054877;28;20035;-91
2023/07/17 05:52:12;;;;;;;6.00;3.10;;;;;;;15.00;90.95;101646.66;5054358;28;20053;-90
2023/07/17 05:54:38;;;;;;;5.97;2.93;;;;;;;15.05;90.13;101652.69;5055289;28;20044;-90
2023/07/17 05:57:15;;;;;;;5.33;2.90;;;;;;;15.09;89.82;101654.31;5058211;28;20067;-88
2023/07/17 05:59:41;;;;;;;4.47;2.50;;;;;;;15.22;89.82;101657.53;5070545;28;20048;-91
2023/07/17 06:02:06;;;;;;;5.53;3.00;;;;;;;15.25;89.28;101650.50;5067075;28;20388;-93
2023/07/17 06:04:31;;;;;;;5.40;2.70;;;;;;;15.26;90.14;101644.38;5057391;28;20029;-93
2023/07/17 06:06:59;;;;;;;6.33;3.00;;;;;;;15.38;89.46;101655.44;5055656;28;20048;-95
2023/07/17 06:09:24;;;;;;;5.60;3.00;;;;;;;15.43;88.94;101664.91;5055320;28;20025;-93
2023/07/17 06:11:52;;;;;;;8.13;3.40;;;;;;;15.47;89.59;101667.47;5055103;28;20020;-93
2023/07/17 06:14:18;;;;;;;6.25;3.28;;;;;;;15.50;88.81;101663.03;5055426;28;20025;-92
2023/07/17 06:16:43;;;;;;;5.97;2.97;;;;;;;15.60;88.95;101669.75;5054872;28;20021;-90
2023/07/17 06:19:09;;;;;;;6.30;3.07;;;;;;;15.74;86.71;101664.19;5055177;28;20025;-93
2023/07/17 06:21:34;;;;;;;5.43;3.07;;;;;;;16.38;87.56;101667.88;5055071;28;20107;-86
2023/07/17 06:24:09;;;;;;;8.10;3.57;;;;;;;17.15;83.43;101672.78;5056055;28;20039;-88
2023/07/17 06:26:49;;;;;;;8.02;3.28;;;;;;;17.47;79.86;101656.94;5052505;28;20461;-83
2023/07/17 06:29:30;;;;;;;7.40;3.45;;;;;;;18.02;79.26;101670.94;5052884;28;20032;-82
2023/07/17 06:32:05;;;;;;;5.13;2.90;;;;;;;18.49;79.17;101680.75;5052995;28;20207;-83
2023/07/17 06:34:30;;;;;;;7.53;3.70;;;;;;;18.78;75.85;101693.75;5053375;28;20029;-83
2023/07/17 06:36:56;;;;;;;8.43;3.70;;;;;;;18.88;75.92;101692.50;5053020;28;20033;-84
2023/07/17 06:39:24;;;;;;;6.23;3.23;;;;;;;19.01;76.10;101692.09;5051945;28;20024;-84
2023/07/17 06:41:49;;;;;;;6.85;3.15;;;;;;;19.05;72.49;101685.78;5053113;28;20020;-90
2023/07/17 06:44:14;;;;;;;8.53;3.77;;;;;;;19.13;75.05;101679.31;5053856;28;20488;-91
2023/07/17 06:46:41;;;;;;;5.07;2.90;;;;;;;19.54;75.55;101686.50;5052652;28;20480;-90
2023/07/17 06:49:06;;;;;;;6.05;3.15;;;;;;;19.95;72.61;101698.97;5053026;28;20099;-83
2023/07/17 06:51:32;;;;;;;5.60;2.90;;;;;;;19.88;70.85;101698.34;5052806;28;20472;-86
2023/07/17 06:53:57;;;;;;;6.03;3.10;;;;;;;20.06;70.88;101706.41;5052049;28;20047;-85
2023/07/17 06:56:23;;;;;;;7.43;3.20;;;;;;;20.20;71.54;101711.97;5052460;28;20052;-86
2023/07/17 06:58:48;;;;;;;6.87;3.40;;;;;;;20.49;68.40;101709.00;5048371;28;20126;-84
2023/07/17 07:01:16;;;;;;;6.70;3.23;;;;;;;20.60;69.89;101698.00;5051965;28;20372;-85
2023/07/17 07:03:43;;;;;;;5.10;3.00;;;;;;;20.66;69.55;101717.03;5052909;28;20415;-84
2023/07/17 07:06:08;;;;;;;6.78;2.90;;;;;;;20.43;66.76;101718.03;5052517;28;20063;-84
2023/07/17 07:08:34;;;;;;;6.53;3.23;;;;;;;20.06;68.52;101722.22;5051565;28;20100;-84
2023/07/17 07:13:56;;;;;;;4.03;2.75;;;;;;;20.06;71.16;101732.75;5053032;28;20035;-85
2023/07/17 07:16:28;;;;;;;6.13;3.00;;;;;;;20.13;69.02;101728.09;5051525;28;20025;-85
2023/07/17 07:18:55;;;;;;;7.35;3.20;;;;;;;20.02;70.07;101731.19;5052620;28;20175;-86
2023/07/17 07:21:21;;;;;;;6.88;2.92;;;;;;;19.96;70.77;101724.38;5051358;28;20084;-85
2023/07/17 07:23:49;;;;;;;7.03;3.23;;;;;;;19.86;69.54;101731.78;5052579;28;20025;-84
2023/07/17 07:26:14;;;;;;;5.97;2.95;;;;;;;19.70;70.54;101717.50;5050766;28;20029;-85
2023/07/17 07:28:39;;;;;;;5.60;2.80;;;;;;;19.78;69.10;101736.50;5051785;28;20136;-80
2023/07/17 07:31:05;;;;;;;6.37;3.00;;;;;;;19.83;69.64;101737.16;5052266;28;20056;-86
2023/07/17 07:33:30;;;;;;;8.33;3.67;;;;;;;19.70;66.51;101738.59;5052390;28;20472;-87
2023/07/17 07:35:56;;;;;;;6.20;3.33;;;;;;;19.70;70.11;101744.69;5051581;28;20064;-87
2023/07/17 07:38:22;;;;;;;4.67;2.90;;;;;;;19.83;70.44;101742.41;5039943;28;20030;-87
2023/07/17 07:40:49;;;;;;;5.45;2.90;;;;;;;19.96;70.47;101745.47;5049646;28;20025;-87
2023/07/17 07:43:18;;;;;;;5.15;2.80;;;;;;;20.10;70.04;101751.97;5051383;28;20025;-85
2023/07/17 07:45:43;;;;;;;4.30;2.80;;;;;;;20.10;69.23;101747.53;5033702;28;20148;-87
2023/07/17 07:48:08;;;;;;;4.13;2.40;;;;;;;20.18;66.29;101760.41;5032024;28;20048;-86
2023/07/17 07:50:34;;;;;;;4.30;2.43;;;;;;;20.09;69.33;101753.72;5032293;28;20089;-88
2023/07/17 07:52:59;;;;;;;4.60;2.53;;;;;;;20.09;69.67;101751.09;5032116;28;20060;-86
2023/07/17 07:55:24;;;;;;;4.77;2.90;;;;;;;20.22;69.70;101754.06;5032253;28;20859;-86
2023/07/17 07:57:50;;;;;;;3.47;2.50;;;;;;;20.27;68.44;101762.66;5049166;28;20025;-85
2023/07/17 08:00:16;;;;;;;4.40;2.80;;;;;;;20.20;67.17;101759.41;5051663;28;20132;-86
2023/07/17 08:02:41;;;;;;;6.05;3.15;;;;;;;20.19;62.99;101762.13;5051978;28;20440;-87
2023/07/17 08:05:09;;;;;;;6.20;2.83;;;;;;;20.28;64.10;101756.44;5051215;28;20540;-86
2023/07/17 08:07:34;;;;;;;4.22;2.80;;;;;;;20.60;67.59;101766.56;5052030;28;20033;-87
2023/07/17 08:09:59;;;;;;;6.50;3.20;;;;;;;20.70;66.62;101765.25;5051821;28;20057;-84
2023/07/17 08:12:25;;;;;;;4.53;2.80;;;;;;;20.70;67.25;101767.88;5050984;28;20067;-87
2023/07/17 08:15:07;;;;;;;4.20;2.63;;;;;;;20.83;66.88;101771.72;5051993;28;20033;-87
2023/07/17 08:17:34;;;;;;;2.85;2.47;;;;;;;21.02;66.41;101777.94;5051425;28;20110;-86
2023/07/17 08:19:59;;;;;;;5.78;3.00;;;;;;;20.98;61.46;101770.19;5052134;28;20442;-87
2023/07/17 08:22:33;;;;;;;6.00;3.10;;;;;;;21.00;65.19;101767.47;5054684;28;20040;-86
2023/07/17 08:25:08;;;;;;;3.78;2.50;;;;;;;20.89;61.73;101754.75;5054812;28;20539;-85
2023/07/17 08:27:33;;;;;;;4.95;2.92;;;;;;;20.93;64.46;101755.50;5055454;28;20029;-86
2023/07/17 08:29:59;;;;;;;5.50;3.03;;;;;;;21.06;63.05;101761.06;5055152;28;20396;-84
2023/07/17 08:32:30;;;;;;;4.20;2.50;;;;;;;21.13;63.92;101770.41;5052871;28;20472;-86
2023/07/17 08:35:15;;;;;;;3.30;2.50;;;;;;;21.11;63.65;101773.13;5050333;28;20055;-86
2023/07/17 08:38:07;;;;;;;3.85;2.38;;;;;;;21.13;63.23;101773.91;5054264;28;20507;-82
2023/07/17 08:40:37;;;;;;;2.95;2.28;;;;;;;21.06;63.83;101782.19;5051610;28;20048;-87
2023/07/17 08:43:05;;;;;;;5.47;2.72;;;;;;;20.79;63.10;101783.34;5055279;28;20037;-87
2023/07/17 08:45:31;;;;;;;3.10;2.40;;;;;;;20.49;62.35;101774.91;5054311;28;20059;-86
2023/07/17 08:47:57;;;;;;;4.03;2.65;;;;;;;20.51;63.51;101784.47;5053372;28;20477;-86
2023/07/17 08:50:33;;;;;;;2.30;2.10;;;;;;;20.74;64.34;101782.66;5054773;28;20154;-86
2023/07/17 08:53:13;;;;;;;2.40;2.10;;;;;;;21.11;63.52;101786.31;5054187;28;20032;-84
2023/07/17 08:55:49;;;;;;;5.80;2.65;;;;;;;21.30;63.13;101788.13;5055127;28;20084;-86
2023/07/17 08:58:15;;;;;;;;;;;;;;;21.47;60.94;101789.97;5055118;28;20052;-86
2023/07/17 09:00:42;;;;;;;;;;;;;;;21.62;61.91;101783.16;5054884;28;20394;-86
2023/07/17 09:03:08;;;;;;;5.07;2.67;;;;;;;21.85;58.76;101783.84;5054611;28;19916;-86
2023/07/17 09:05:33;;;;;;;4.33;2.80;;;;;;;21.94;58.76;101778.16;5054182;28;20480;-85
2023/07/17 09:07:59;;;;;;;8.57;3.23;;;;;;;22.02;59.44;101785.69;5053895;28;20051;-87
2023/07/17 09:10:27;;;;;;;4.60;2.90;;;;;;;22.09;57.62;101778.31;5054698;28;20070;-85
2023/07/17 09:12:58;;;;;;;5.43;2.90;;;;;;;22.16;57.29;101779.72;5054669;28;20040;-86
2023/07/17 09:15:24;;;;;;;6.20;2.90;;;;;;;22.15;57.14;101786.78;5051907;28;20510;-84
2023/07/17 09:17:50;;;;;;;6.70;2.85;;;;;;;22.29;58.78;101785.25;5045579;28;20369;-86
2023/07/17 09:20:17;;;;;;;5.25;2.63;;;;;;;22.41;58.88;101794.38;5054319;28;20047;-84
2023/07/17 09:22:43;;;;;;;3.10;2.35;;;;;;;22.54;56.26;101792.84;5053691;28;20033;-85
2023/07/17 09:25:10;;;;;;;4.47;2.60;;;;;;;22.45;57.55;101786.25;5054252;28;20102;-86
2023/07/17 09:27:43;;;;;;;4.40;2.47;;;;;;;22.35;55.64;101790.22;5054400;28;20024;-86
2023/07/17 09:30:11;;;;;;;3.42;2.10;;;;;;;22.32;58.85;101790.41;5053318;28;20429;-86
2023/07/17 09:32:36;;;;;;;2.72;2.10;;;;;;;22.23;56.56;101782.94;5053510;28;20096;-85
2023/07/17 09:35:04;;;;;;;2.93;2.00;;;;;;;22.30;57.99;101790.47;5053676;28;20098;-85
2023/07/17 09:37:33;;;;;;;3.08;2.15;;;;;;;22.34;57.16;101792.03;5054092;28;20377;-86
2023/07/17 09:40:00;;;;;;;4.03;2.10;;;;;;;22.54;54.59;101790.19;5054181;28;20071;-85
2023/07/17 09:42:26;;;;;;;3.65;2.25;;;;;;;22.66;54.97;101792.22;5053731;28;20074;-85
2023/07/17 09:44:52;;;;;;;4.87;2.60;;;;;;;22.55;52.91;101791.91;5053915;28;20055;-82
2023/07/17 09:47:21;;;;;;;5.38;2.30;;;;;;;22.55;54.24;101789.25;5053947;28;20021;-83
2023/07/17 09:49:51;;;;;;;3.88;2.20;;;;;;;22.43;51.70;101788.09;5053191;28;20040;-82
2023/07/17 09:52:18;;;;;;;3.08;2.20;;;;;;;22.40;51.96;101801.44;5053661;28;20032;-83
2023/07/17 09:54:44;;;;;;;4.72;2.38;;;;;;;22.25;53.11;101797.78;5053779;28;20021;-85
2023/07/17 09:57:12;;;;;;;3.67;2.15;;;;;;;22.31;51.71;101786.88;5052722;28;20480;-86
2023/07/17 09:59:43;;;;;;;4.45;2.38;;;;;;;;;;5053437;28;20067;-86
2023/07/17 10:02:16;;;;;;;4.72;2.65;;;;;;;22.76;51.90;101794.38;5052742;28;20100;-84
2023/07/17 10:04:49;;;;;;;3.90;2.20;;;;;;;22.81;49.78;101802.94;5033028;28;20462;-85
2023/07/17 10:07:15;;;;;;;3.85;2.30;;;;;;;22.62;52.64;101801.25;5033207;28;20025;-86
2023/07/17 10:09:43;;;;;;;2.75;1.98;;;;;;;22.46;51.57;101797.66;5033500;28;20117;-86
2023/07/17 10:12:10;;;;;;;5.10;2.40;;;;;;;22.32;52.67;101788.59;5031539;28;20409;-84
2023/07/17 10:14:36;;;;;;;2.20;2.00;;;;;;;22.51;54.07;101790.38;5033769;28;20025;-86
2023/07/17 10:17:01;;;;;;;3.45;2.30;;;;;;;22.74;51.29;101794.47;5033681;28;20496;-86
2023/07/17 10:19:43;;;;;;;2.60;1.80;;;;;;;22.94;53.97;101801.38;5032316;28;20033;-85
2023/07/17 10:22:13;;;;;;;4.03;2.10;;;;;;;23.16;51.94;101794.94;5033424;28;20034;-86
2023/07/17 10:24:40;;;;;;;3.50;1.80;;;;;;;23.12;51.86;101801.31;5032841;28;20053;-86
2023/07/17 10:27:06;;;;;;;4.38;2.10;;;;;;;22.92;51.41;101799.72;5032969;28;20479;-85
2023/07/17 10:29:40;;;;;;;2.67;2.00;;;;;;;22.89;50.80;101791.97;5033268;28;20025;-86
2023/07/17 10:32:12;;;;;;;2.97;2.00;;;;;;;22.78;52.72;101801.31;5032471;28;20036;-86
2023/07/17 10:34:54;;;;;;;2.28;1.65;;;;;;;22.63;53.66;101804.75;5033203;28;20026;-85
2023/07/17 10:37:31;;;;;;;1.73;1.60;;;;;;;22.53;53.52;101801.69;5033548;28;20045;-85
2023/07/17 10:40:08;;;;;;;2.05;1.80;;;;;;;22.55;53.53;101791.91;5032450;28;20119;-86
2023/07/17 10:42:33;;;;;;;2.45;1.90;;;;;;;22.86;53.01;101792.94;5033069;28;20017;-86
2023/07/17 10:45:11;;;;;;;2.75;2.13;;;;;;;23.20;50.09;101803.59;5032930;28;20388;-86
2023/07/17 10:47:37;;;;;;;2.42;2.00;;;;;;;23.17;51.02;101809.00;5032252;28;20044;-86
2023/07/17 10:50:03;;;;;;;3.93;2.30;;;;;;;23.17;50.58;101799.28;5033189;28;20465;-85
2023/07/17 10:52:33;;;;;;;4.45;2.40;;;;;;;23.47;49.41;101814.47;5032156;28;20354;-85
2023/07/17 10:55:03;;;;;;;5.47;2.53;;;;;;;23.64;47.90;101802.13;5033044;28;20461;-86
2023/07/17 10:57:29;;;;;;;4.60;2.45;;;;;;;23.84;48.16;101787.72;5032634;28;20032;-86
2023/07/17 10:59:55;;;;;;;5.50;2.33;;;;;;;23.96;46.76;101783.56;5031872;28;20116;-85
2023/07/17 11:02:22;;;;;;;;;;;;;;;24.19;49.84;101784.88;5033136;28;20025;-85
2023/07/17 11:04:52;;;;;;;4.43;2.40;;;;;;;24.27;46.96;101782.63;5032970;28;19913;-83
2023/07/17 11:07:18;;;;;;;3.38;2.45;;;;;;;24.27;45.57;101787.94;5032092;28;20052;-86
2023/07/17 11:09:44;;;;;;;2.67;2.27;;;;;;;24.24;45.14;101779.31;5032730;28;20101;-84
2023/07/17 11:12:10;;;;;;;3.88;2.60;;;;;;;24.14;45.66;101782.50;5032438;28;20021;-82
2023/07/17 11:14:35;;;;;;;3.57;2.20;;;;;;;24.07;47.53;101781.16;5032214;28;20095;-86
2023/07/17 11:17:00;;;;;;;2.30;2.00;;;;;;;24.32;48.21;101779.72;5040571;28;20103;-86
2023/07/17 11:19:26;;;;;;;3.60;2.20;;;;;;;24.46;44.04;101778.91;5051212;28;20385;-92
2023/07/17 11:21:51;;;;;;;4.33;2.30;;;;;;;24.35;46.41;101792.78;5051747;28;20059;-80
2023/07/17 11:24:17;;;;;;;4.20;2.43;;;;;;;24.05;46.08;101789.19;5052093;28;20086;-83
2023/07/17 11:26:42;;;;;;;;;;;;;;;24.09;46.59;101781.06;5053160;28;20039;-88
2023/07/17 11:29:08;;;;;;;4.25;2.38;;;;;;;24.02;44.61;101778.78;5051195;28;19999;-82
2023/07/17 11:31:34;;;;;;;3.80;2.30;;;;;;;23.88;46.39;101790.09;5052630;28;20167;-91